Time;durP1;ratioP1;P1;durP2;ratioP2;P2;SDS_P1;SDS_P2;PMS_P1;PMS_P2;Temp;Humidity;BMP_temperature;BMP_pressure;BME280_temperature;BME280_humidity;BME280_pressure;Samples;Min_cycle;Max_cycle;Signal;HPM_P1;HPM_P2
2023/01/02 00:01:39;;;;;;;8.38;3.70;;;9.50;99.90;;;;;;5034808;28;20041;-62
2023/01/02 00:04:05;;;;;;;10.18;4.18;;;9.50;99.90;;;;;;5048864;28;20048;-63
2023/01/02 00:06:35;;;;;;;5.55;3.22;;;9.50;99.90;;;;;;5052376;28;20041;-61
2023/01/02 00:09:03;;;;;;;9.00;4.10;;;9.50;99.90;;;;;;5048691;28;20056;-63
2023/01/02 00:11:29;;;;;;;9.15;4.63;;;9.50;99.90;;;;;;5055091;28;20060;-62
2023/01/02 00:13:55;;;;;;;10.45;4.20;;;9.50;99.90;;;;;;5058488;28;20049;-62
2023/01/02 00:16:21;;;;;;;7.32;4.43;;;9.50;99.90;;;;;;5057337;28;20091;-63
2023/01/02 00:18:46;;;;;;;9.65;4.90;;;9.60;99.90;;;;;;5053070;28;20051;-62
2023/01/02 00:21:12;;;;;;;7.57;4.47;;;9.50;99.90;;;;;;5047038;28;21052;-62
2023/01/02 00:23:38;;;;;;;7.43;4.22;;;9.50;99.90;;;;;;5047910;28;20110;-61
2023/01/02 00:26:05;;;;;;;10.23;4.50;;;9.50;99.90;;;;;;5047374;28;20068;-62
2023/01/02 00:28:32;;;;;;;9.15;5.30;;;9.60;99.90;;;;;;5049979;28;20072;-62
2023/01/02 00:31:04;;;;;;;7.15;4.95;;;9.50;99.90;;;;;;5049027;28;20048;-62
2023/01/02 00:33:30;;;;;;;7.90;4.72;;;9.60;99.90;;;;;;5030924;28;20431;-61
2023/01/02 00:35:56;;;;;;;8.75;5.50;;;9.60;99.90;;;;;;5047498;28;20131;-62
2023/01/02 00:38:22;;;;;;;8.25;5.53;;;9.60;99.90;;;;;;5016813;28;20108;-62
2023/01/02 00:40:48;;;;;;;9.45;6.15;;;9.60;99.90;;;;;;5032298;28;20044;-62
2023/01/02 00:43:15;;;;;;;9.20;6.15;;;9.60;99.90;;;;;;5046441;28;20162;-62
2023/01/02 00:45:42;;;;;;;9.00;5.88;;;9.60;99.90;;;;;;5045253;28;20064;-62
2023/01/02 00:48:08;;;;;;;10.57;6.90;;;9.70;99.90;;;;;;5045226;28;20458;-62
2023/01/02 00:50:33;;;;;;;9.10;5.88;;;9.70;99.90;;;;;;5029560;28;20041;-63
2023/01/02 00:52:59;;;;;;;10.40;6.70;;;9.70;99.90;;;;;;5043453;28;20579;-61
2023/01/02 00:55:25;;;;;;;10.95;6.70;;;9.70;99.90;;;;;;5049289;28;20574;-62
2023/01/02 00:57:51;;;;;;;10.13;6.75;;;9.70;99.90;;;;;;5049271;28;20048;-62
2023/01/02 01:00:17;;;;;;;9.18;6.30;;;9.80;99.90;;;;;;5047757;28;20036;-62
2023/01/02 01:02:43;;;;;;;12.18;7.40;;;9.80;99.90;;;;;;5029330;28;20045;-62
2023/01/02 01:05:09;;;;;;;13.38;7.15;;;9.80;99.90;;;;;;5048185;28;20376;-62
2023/01/02 01:07:34;;;;;;;9.80;7.03;;;9.80;99.90;;;;;;5047305;28;20045;-62
2023/01/02 01:10:00;;;;;;;13.15;7.32;;;9.90;99.90;;;;;;5015081;28;20140;-62
2023/01/02 01:12:26;;;;;;;11.43;6.45;;;9.80;99.90;;;;;;5062901;28;20045;-62
2023/01/02 01:14:52;;;;;;;9.05;6.10;;;9.90;99.90;;;;;;5031527;28;20495;-63
2023/01/02 01:17:18;;;;;;;8.35;6.00;;;9.90;99.90;;;;;;5014297;28;20040;-62
2023/01/02 01:19:43;;;;;;;9.38;6.10;;;9.90;99.90;;;;;;5003945;28;20064;-63
2023/01/02 01:22:09;;;;;;;8.90;5.90;;;9.90;99.90;;;;;;5048273;28;20049;-62
2023/01/02 01:24:35;;;;;;;8.07;5.78;;;9.90;99.90;;;;;;5045957;28;20590;-63
2023/01/02 01:27:01;;;;;;;6.78;4.95;;;10.00;99.90;;;;;;5047435;28;20491;-63
2023/01/02 01:29:26;;;;;;;11.85;6.18;;;10.00;99.90;;;;;;5051589;28;20835;-63
2023/01/02 01:31:52;;;;;;;11.20;5.68;;;10.00;99.90;;;;;;5059927;28;20191;-62
2023/01/02 01:34:18;;;;;;;8.43;6.00;;;10.00;99.90;;;;;;5048065;28;20037;-62
2023/01/02 01:36:44;;;;;;;10.02;5.65;;;10.10;99.90;;;;;;5064594;28;20059;-62
2023/01/02 01:39:10;;;;;;;9.82;5.90;;;10.10;99.90;;;;;;5051113;28;20123;-62
2023/01/02 01:41:35;;;;;;;9.18;5.90;;;10.10;99.90;;;;;;5027923;28;20057;-62
2023/01/02 01:44:21;;;;;;;9.85;5.82;;;10.10;99.90;;;;;;5032724;28;20163;-62
2023/01/02 01:46:47;;;;;;;10.43;5.80;;;10.10;99.90;;;;;;5049726;28;20155;-62
2023/01/02 01:49:22;;;;;;;8.52;6.30;;;10.20;99.90;;;;;;5050959;28;20226;-62
2023/01/02 01:52:03;;;;;;;10.77;6.68;;;10.20;99.90;;;;;;5045039;28;20119;-63
2023/01/02 01:54:37;;;;;;;10.20;6.40;;;10.20;99.90;;;;;;5045085;28;20071;-62
2023/01/02 01:57:11;;;;;;;11.25;7.35;;;10.20;99.90;;;;;;5042653;28;20079;-62
2023/01/02 01:59:38;;;;;;;10.35;7.30;;;10.20;99.90;;;;;;5050469;28;20060;-62
2023/01/02 02:02:05;;;;;;;11.00;7.25;;;10.20;99.90;;;;;;5042415;28;20053;-63
2023/01/02 02:04:31;;;;;;;11.68;7.80;;;10.20;99.90;;;;;;5044297;28;20079;-62
2023/01/02 02:06:57;;;;;;;13.15;8.40;;;10.20;99.90;;;;;;5043277;28;20084;-61
2023/01/02 02:09:46;;;;;;;10.63;7.97;;;10.30;99.90;;;;;;5046790;28;20140;-62
2023/01/02 02:12:13;;;;;;;12.13;8.05;;;10.30;99.90;;;;;;5044747;28;20415;-62
2023/01/02 02:14:39;;;;;;;12.27;7.97;;;10.30;99.90;;;;;;5046382;28;20056;-62
2023/01/02 02:17:30;;;;;;;13.18;8.10;;;10.30;99.90;;;;;;5026654;28;20037;-62
2023/01/02 02:20:09;;;;;;;13.32;9.05;;;10.30;99.90;;;;;;5053131;28;20056;-62
2023/01/02 02:22:50;;;;;;;13.75;8.77;;;10.30;99.90;;;;;;5048658;28;20075;-61
2023/01/02 02:25:55;;;;;;;13.15;8.25;;;10.30;99.90;;;;;;5049611;28;20040;-62
2023/01/02 02:28:29;;;;;;;13.52;8.40;;;10.30;99.90;;;;;;5045517;28;20410;-63
2023/01/02 02:31:02;;;;;;;14.40;9.18;;;10.40;99.90;;;;;;5046157;28;20060;-62
2023/01/02 02:34:13;;;;;;;14.88;9.93;;;10.40;99.90;;;;;;5032175;28;20511;-62
2023/01/02 02:37:04;;;;;;;14.82;9.88;;;10.40;99.90;;;;;;5054647;28;20064;-63
2023/01/02 02:39:41;;;;;;;15.85;10.35;;;10.40;99.90;;;;;;5053131;28;20497;-62
2023/01/02 02:42:41;;;;;;;15.55;10.07;;;10.40;99.90;;;;;;5067141;28;20044;-63
2023/01/02 02:45:15;;;;;;;19.75;10.48;;;10.40;99.90;;;;;;5043564;28;20057;-62
2023/01/02 02:48:08;;;;;;;16.00;12.13;;;10.50;99.90;;;;;;5049160;28;20085;-63
2023/01/02 02:50:57;;;;;;;15.18;10.68;;;10.50;99.90;;;;;;5046079;28;20044;-62
2023/01/02 02:53:25;;;;;;;19.08;11.65;;;10.50;99.90;;;;;;5042271;28;20059;-62
2023/01/02 02:55:57;;;;;;;17.23;11.48;;;10.60;99.90;;;;;;5031574;28;20156;-61
2023/01/02 02:58:24;;;;;;;17.00;11.63;;;10.50;99.90;;;;;;5045316;28;20055;-62
2023/01/02 03:00:58;;;;;;;16.17;12.65;;;10.60;99.90;;;;;;5042811;28;20041;-62
2023/01/02 03:03:24;;;;;;;20.55;13.77;;;10.60;99.90;;;;;;5048183;28;20398;-63
2023/01/02 03:05:53;;;;;;;16.15;11.02;;;10.70;99.90;;;;;;5047692;28;20052;-62
2023/01/02 03:08:27;;;;;;;17.17;11.50;;;10.60;99.90;;;;;;5043559;28;20399;-62
2023/01/02 03:10:58;;;;;;;17.42;11.27;;;10.70;99.90;;;;;;5044658;28;20099;-62
2023/01/02 03:13:36;;;;;;;16.33;10.70;;;10.70;99.90;;;;;;5048172;28;20215;-61
2023/01/02 03:16:24;;;;;;;20.73;11.90;;;10.60;99.90;;;;;;5047960;28;20045;-62
2023/01/02 03:19:05;;;;;;;16.85;12.05;;;10.70;99.90;;;;;;5049196;28;20132;-62
2023/01/02 03:21:40;;;;;;;19.42;12.52;;;10.70;99.90;;;;;;5045245;28;20044;-62
2023/01/02 03:24:09;;;;;;;18.65;12.63;;;10.70;99.90;;;;;;5067375;28;20056;-62
2023/01/02 03:26:40;;;;;;;19.55;13.30;;;10.70;99.90;;;;;;5050762;28;20464;-62
2023/01/02 03:29:14;;;;;;;20.45;13.00;;;10.70;99.90;;;;;;5050101;28;20055;-61
2023/01/02 03:31:44;;;;;;;19.60;13.65;;;10.70;99.90;;;;;;5049461;28;20484;-62
2023/01/02 03:34:14;;;;;;;18.58;12.63;;;10.70;99.90;;;;;;5052879;28;20053;-62
2023/01/02 03:36:44;;;;;;;16.52;11.55;;;10.80;99.90;;;;;;5033341;28;20491;-61
2023/01/02 03:39:18;;;;;;;14.90;9.95;;;10.80;99.90;;;;;;5049283;28;20182;-61
2023/01/02 03:42:16;;;;;;;15.88;10.55;;;10.80;99.90;;;;;;5050597;28;20052;-62
2023/01/02 03:44:53;;;;;;;13.80;10.90;;;10.80;99.90;;;;;;5048542;28;20597;-62
2023/01/02 03:47:34;;;;;;;18.60;12.13;;;10.80;99.90;;;;;;5050988;28;20403;-62
2023/01/02 03:50:05;;;;;;;20.50;12.02;;;10.80;99.90;;;;;;5045334;28;20708;-63
2023/01/02 03:52:31;;;;;;;22.38;13.30;;;10.80;99.90;;;;;;5051865;28;20479;-62
2023/01/02 03:54:59;;;;;;;23.00;13.95;;;10.80;99.90;;;;;;5048870;28;20068;-62
2023/01/02 03:57:49;;;;;;;25.63;14.98;;;10.80;99.90;;;;;;5040511;28;20063;-63
2023/01/02 04:00:18;;;;;;;22.17;13.68;;;10.80;99.90;;;;;;5047375;28;22315;-62
2023/01/02 04:03:02;;;;;;;23.65;14.38;;;10.90;99.90;;;;;;5048903;28;20056;-62
2023/01/02 04:05:47;;;;;;;23.90;15.70;;;10.90;99.90;;;;;;5036727;28;20048;-62
2023/01/02 04:08:17;;;;;;;24.02;15.15;;;10.90;99.90;;;;;;5049847;28;20470;-62
2023/01/02 04:10:46;;;;;;;27.45;15.07;;;10.90;99.90;;;;;;5037080;28;20059;-63
2023/01/02 04:13:20;;;;;;;25.27;16.02;;;10.90;99.90;;;;;;5035208;28;20049;-62
2023/01/02 04:15:48;;;;;;;27.52;15.60;;;11.00;99.90;;;;;;5044595;28;20543;-62
2023/01/02 04:18:27;;;;;;;26.40;15.27;;;10.90;99.90;;;;;;5052501;28;20049;-62
2023/01/02 04:20:59;;;;;;;23.67;14.75;;;10.90;99.90;;;;;;5054531;28;20525;-62
2023/01/02 04:23:33;;;;;;;24.40;14.98;;;10.90;99.90;;;;;;5050231;28;20445;-62
2023/01/02 04:26:08;;;;;;;27.00;14.32;;;10.90;99.90;;;;;;5050323;28;20087;-62
2023/01/02 04:28:34;;;;;;;22.30;14.00;;;10.90;99.90;;;;;;5053803;28;20543;-62
2023/01/02 04:31:26;;;;;;;20.38;12.95;;;11.00;99.90;;;;;;5050172;28;20041;-62
2023/01/02 04:33:56;;;;;;;23.20;13.80;;;11.00;99.90;;;;;;5050582;28;20044;-62
2023/01/02 04:36:22;;;;;;;22.67;13.95;;;10.90;99.90;;;;;;5054489;28;20183;-63
2023/01/02 04:38:48;;;;;;;24.45;14.20;;;10.90;99.90;;;;;;5052736;28;20397;-61
2023/01/02 04:41:25;;;;;;;23.13;13.57;;;10.90;99.90;;;;;;5052957;28;20045;-62
2023/01/02 04:43:58;;;;;;;28.40;15.05;;;10.90;99.90;;;;;;5052569;28;20458;-62
2023/01/02 04:46:24;;;;;;;;;;;10.90;99.90;;;;;;5041507;28;20044;-62
2023/01/02 04:48:50;;;;;;;25.45;15.40;;;10.90;99.90;;;;;;5051919;28;19920;-62
2023/01/02 04:51:16;;;;;;;29.60;16.13;;;10.90;99.90;;;;;;5050649;28;20711;-62
2023/01/02 04:53:42;;;;;;;28.10;15.20;;;10.90;99.90;;;;;;5049625;28;20065;-62
2023/01/02 04:56:08;;;;;;;25.73;15.65;;;10.90;99.90;;;;;;5044010;28;20045;-62
2023/01/02 04:58:34;;;;;;;30.88;15.10;;;10.90;99.90;;;;;;5046317;28;20097;-62
2023/01/02 05:01:00;;;;;;;23.48;15.23;;;10.90;99.90;;;;;;5055177;28;20051;-61
2023/01/02 05:03:26;;;;;;;30.00;16.45;;;10.90;99.90;;;;;;5045753;28;24945;-61
2023/01/02 05:05:59;;;;;;;29.23;15.93;;;10.90;99.90;;;;;;5050066;28;20517;-62
2023/01/02 05:08:25;;;;;;;29.55;14.13;;;10.90;99.90;;;;;;5048627;28;20491;-62
2023/01/02 05:10:51;;;;;;;21.38;14.52;;;10.90;99.90;;;;;;5041557;28;20077;-61
2023/01/02 05:13:16;;;;;;;23.30;13.73;;;10.90;99.90;;;;;;5051338;28;20411;-62
2023/01/02 05:15:42;;;;;;;25.67;13.40;;;10.90;99.90;;;;;;5046852;28;20099;-62
2023/01/02 05:18:08;;;;;;;22.10;12.60;;;10.90;99.90;;;;;;5050841;28;20487;-63
2023/01/02 05:20:34;;;;;;;19.63;13.32;;;10.90;99.90;;;;;;5048470;28;20091;-61
2023/01/02 05:25:44;;;;;;;17.23;11.30;;;10.90;99.90;;;;;;5045000;28;20094;-62
2023/01/02 05:28:10;;;;;;;19.58;11.32;;;10.90;99.90;;;;;;5048991;28;20052;-62
2023/01/02 05:30:37;;;;;;;15.77;10.35;;;10.90;99.90;;;;;;5059438;28;20044;-62
2023/01/02 05:33:03;;;;;;;15.30;9.57;;;10.90;99.90;;;;;;5054463;28;20053;-61
2023/01/02 05:35:29;;;;;;;11.90;8.98;;;10.90;99.90;;;;;;5016488;28;20048;-62
2023/01/02 05:37:55;;;;;;;13.80;8.65;;;10.90;99.90;;;;;;5053156;28;20105;-62
2023/01/02 05:40:20;;;;;;;11.23;8.13;;;10.90;99.90;;;;;;5050006;28;20127;-62
2023/01/02 05:42:46;;;;;;;10.45;7.70;;;10.90;99.90;;;;;;5051694;28;20138;-62
2023/01/02 05:45:12;;;;;;;10.57;7.53;;;10.90;99.90;;;;;;5049108;28;20052;-62
2023/01/02 05:47:38;;;;;;;9.57;7.07;;;10.90;99.90;;;;;;5056831;28;20044;-62
2023/01/02 05:50:04;;;;;;;9.18;6.55;;;10.90;99.90;;;;;;5051435;28;20051;-62
2023/01/02 05:52:30;;;;;;;11.82;7.28;;;10.90;99.90;;;;;;5059897;28;20049;-62
2023/01/02 05:54:56;;;;;;;9.50;6.40;;;10.90;99.90;;;;;;5030592;28;20060;-62
2023/01/02 05:57:22;;;;;;;10.25;7.10;;;10.90;99.90;;;;;;5047938;28;20098;-62
2023/01/02 05:59:47;;;;;;;8.55;6.72;;;10.90;99.90;;;;;;5045164;28;20053;-62
2023/01/02 06:02:13;;;;;;;8.73;6.38;;;10.90;99.90;;;;;;5036223;28;20498;-62
2023/01/02 06:04:39;;;;;;;8.30;6.70;;;11.00;99.90;;;;;;5052600;28;20032;-62
2023/01/02 06:07:05;;;;;;;10.60;6.30;;;10.90;99.90;;;;;;5048742;28;20051;-62
2023/01/02 06:09:31;;;;;;;8.18;6.20;;;10.90;99.90;;;;;;5051038;28;20037;-61
2023/01/02 06:11:56;;;;;;;9.52;6.28;;;10.90;99.90;;;;;;5046710;28;20047;-62
2023/01/02 06:14:23;;;;;;;8.05;5.70;;;10.90;99.90;;;;;;5030046;28;20130;-62
2023/01/02 06:16:49;;;;;;;11.27;6.20;;;10.90;99.90;;;;;;5047935;28;20458;-61
2023/01/02 06:19:15;;;;;;;8.63;5.95;;;10.90;99.90;;;;;;5032269;28;20209;-62
2023/01/02 06:21:41;;;;;;;8.00;5.60;;;10.90;99.90;;;;;;5048236;28;20414;-63
2023/01/02 06:24:07;;;;;;;7.28;5.70;;;10.90;99.90;;;;;;5062595;28;20409;-62
2023/01/02 06:26:33;;;;;;;6.70;5.30;;;10.90;99.90;;;;;;5046619;28;20522;-62
2023/01/02 06:28:58;;;;;;;6.82;5.03;;;10.90;99.90;;;;;;5041736;28;20049;-62
2023/01/02 06:31:26;;;;;;;6.18;5.25;;;10.90;99.90;;;;;;5044108;28;20093;-62
2023/01/02 06:33:57;;;;;;;7.05;5.57;;;10.90;99.90;;;;;;5048689;28;20097;-62
2023/01/02 06:36:23;;;;;;;7.47;5.82;;;10.90;99.90;;;;;;5052441;28;20483;-63
2023/01/02 06:38:49;;;;;;;10.00;7.30;;;10.90;99.90;;;;;;5047171;28;20471;-62
2023/01/02 06:41:15;;;;;;;12.95;7.43;;;10.90;99.90;;;;;;5046738;28;20119;-62
2023/01/02 06:43:46;;;;;;;9.95;7.95;;;10.90;99.90;;;;;;5046316;28;20068;-62
2023/01/02 06:46:13;;;;;;;9.68;7.82;;;10.90;99.90;;;;;;5046869;28;20044;-62
2023/01/02 06:48:39;;;;;;;10.15;7.97;;;10.90;99.90;;;;;;5055876;28;20041;-62
2023/01/02 06:51:06;;;;;;;10.55;8.18;;;10.90;99.90;;;;;;5051857;28;20107;-63
2023/01/02 06:53:33;;;;;;;10.88;8.57;;;10.90;99.90;;;;;;5067450;28;20057;-62
2023/01/02 06:55:59;;;;;;;12.82;8.93;;;10.90;99.90;;;;;;5052160;28;20045;-62
2023/01/02 06:58:29;;;;;;;15.77;8.45;;;10.80;99.90;;;;;;5052121;28;20048;-62
2023/01/02 07:00:59;;;;;;;11.50;8.90;;;10.80;99.90;;;;;;5037542;28;20048;-62
2023/01/02 07:03:25;;;;;;;10.68;7.22;;;10.80;99.90;;;;;;5052102;28;20059;-62
2023/01/02 07:05:51;;;;;;;8.98;6.45;;;10.80;99.90;;;;;;5052842;28;20496;-62
2023/01/02 07:08:17;;;;;;;9.15;5.10;;;10.70;99.90;;;;;;5056959;28;20045;-62
2023/01/02 07:10:43;;;;;;;6.25;4.55;;;10.50;99.90;;;;;;5047318;28;20135;-62
2023/01/02 07:13:08;;;;;;;5.82;3.58;;;10.30;99.90;;;;;;5052074;28;20045;-62
2023/01/02 07:15:35;;;;;;;5.00;2.72;;;10.20;99.90;;;;;;5045976;28;20041;-62
2023/01/02 07:18:00;;;;;;;6.47;2.45;;;10.00;99.90;;;;;;5048729;28;20048;-62
2023/01/02 07:20:26;;;;;;;4.25;1.83;;;9.80;99.90;;;;;;5053810;28;20048;-62
2023/01/02 07:22:53;;;;;;;3.45;1.67;;;9.80;99.90;;;;;;5053368;28;20061;-62
2023/01/02 07:25:20;;;;;;;3.45;1.70;;;9.70;99.90;;;;;;5049881;28;20567;-62
2023/01/02 07:27:45;;;;;;;2.72;1.35;;;9.50;99.90;;;;;;5055372;28;20052;-62
2023/01/02 07:30:12;;;;;;;1.90;1.00;;;9.40;99.90;;;;;;5035079;28;20044;-62
2023/01/02 07:32:38;;;;;;;1.42;0.70;;;9.30;99.90;;;;;;5051850;28;20853;-62
2023/01/02 07:35:05;;;;;;;1.95;0.90;;;9.20;99.90;;;;;;5069904;28;20051;-62
2023/01/02 07:37:31;;;;;;;6.07;0.85;;;9.10;99.90;;;;;;5056524;28;20068;-62
2023/01/02 07:39:57;;;;;;;1.23;0.80;;;9.10;99.90;;;;;;5054205;28;20087;-63
2023/01/02 07:42:22;;;;;;;2.38;0.90;;;9.00;99.90;;;;;;5049942;28;20049;-62
2023/01/02 07:44:48;;;;;;;2.58;1.00;;;8.90;99.90;;;;;;5031872;28;20099;-62
2023/01/02 07:47:14;;;;;;;1.40;0.80;;;8.90;99.90;;;;;;5035257;28;20048;-62
2023/01/02 07:49:40;;;;;;;2.65;1.15;;;8.80;99.90;;;;;;5046224;28;20057;-62
2023/01/02 07:52:10;;;;;;;4.13;0.80;;;8.80;99.90;;;;;;5033021;28;20048;-62
2023/01/02 07:54:36;;;;;;;5.13;1.10;;;8.80;99.90;;;;;;5047004;28;20053;-62
2023/01/02 07:57:02;;;;;;;2.53;1.10;;;8.70;99.90;;;;;;5033493;28;20053;-62
2023/01/02 07:59:28;;;;;;;2.15;0.98;;;8.70;99.90;;;;;;5034251;28;20091;-62
2023/01/02 08:01:54;;;;;;;3.78;0.80;;;8.60;99.90;;;;;;5018043;28;20607;-62
2023/01/02 08:04:20;;;;;;;2.72;1.00;;;8.60;99.90;;;;;;5050454;28;20053;-62
2023/01/02 08:06:45;;;;;;;2.00;1.20;;;8.60;99.90;;;;;;5051816;28;20635;-62
2023/01/02 08:09:11;;;;;;;2.85;1.40;;;8.60;99.90;;;;;;5055008;28;20514;-62
2023/01/02 08:11:37;;;;;;;2.58;1.50;;;8.60;99.90;;;;;;5052779;28;20498;-62
2023/01/02 08:14:03;;;;;;;5.43;1.55;;;8.60;99.90;;;;;;5053833;28;20048;-62
2023/01/02 08:16:29;;;;;;;3.58;1.60;;;8.60;99.90;;;;;;5053350;28;20048;-61
2023/01/02 08:18:55;;;;;;;3.20;1.33;;;8.60;99.90;;;;;;5039028;28;20044;-62
2023/01/02 08:21:23;;;;;;;4.18;1.30;;;8.60;99.90;;;;;;5021280;28;20041;-62
2023/01/02 08:23:49;;;;;;;10.07;1.70;;;8.60;99.90;;;;;;5036106;28;20128;-62
2023/01/02 08:26:15;;;;;;;6.47;1.55;;;8.60;99.90;;;;;;5053587;28;20135;-62
2023/01/02 08:28:41;;;;;;;8.35;1.77;;;8.60;99.90;;;;;;5047439;28;20486;-62
2023/01/02 08:31:13;;;;;;;6.22;1.50;;;8.60;99.90;;;;;;5045006;28;20041;-62
2023/01/02 08:33:39;;;;;;;6.03;1.45;;;8.50;99.90;;;;;;5050451;28;20399;-63
2023/01/02 08:36:05;;;;;;;4.68;1.70;;;8.50;99.90;;;;;;5049922;28;20049;-62
2023/01/02 08:38:31;;;;;;;3.85;1.60;;;8.50;99.90;;;;;;5034962;28;20041;-63
2023/01/02 08:40:58;;;;;;;5.95;1.70;;;8.50;99.90;;;;;;5049545;28;20526;-63
2023/01/02 08:43:24;;;;;;;7.55;1.58;;;8.50;99.90;;;;;;5049818;28;20053;-62
2023/01/02 08:45:50;;;;;;;5.10;1.85;;;8.50;99.90;;;;;;5051629;28;20418;-62
2023/01/02 08:48:16;;;;;;;3.28;1.55;;;8.50;99.90;;;;;;5052112;28;20052;-63
2023/01/02 08:50:41;;;;;;;4.88;1.80;;;8.50;99.90;;;;;;5049419;28;20045;-62
2023/01/02 08:53:07;;;;;;;5.63;1.67;;;8.50;99.90;;;;;;5046713;28;20399;-62
2023/01/02 08:55:34;;;;;;;6.35;1.73;;;8.50;99.90;;;;;;5049683;28;20064;-62
2023/01/02 08:58:00;;;;;;;5.40;1.90;;;8.50;99.90;;;;;;5033243;28;20044;-62
2023/01/02 09:00:26;;;;;;;4.75;1.70;;;8.50;99.90;;;;;;5041954;28;20056;-62
2023/01/02 09:02:52;;;;;;;3.95;1.52;;;8.50;99.90;;;;;;5045798;28;20392;-63
2023/01/02 09:05:17;;;;;;;3.67;1.70;;;8.50;99.90;;;;;;5047810;28;20052;-62
2023/01/02 09:07:43;;;;;;;4.60;1.90;;;8.50;99.90;;;;;;5015554;28;20087;-63
2023/01/02 09:10:10;;;;;;;5.35;1.80;;;8.50;99.90;;;;;;5049586;28;20495;-62
2023/01/02 09:12:38;;;;;;;4.25;1.77;;;8.50;99.90;;;;;;5052364;28;20049;-62
2023/01/02 09:15:05;;;;;;;4.80;1.73;;;8.50;99.90;;;;;;5048226;28;20406;-62
2023/01/02 09:17:31;;;;;;;5.35;2.00;;;8.50;99.90;;;;;;5047204;28;20048;-63
2023/01/02 09:19:56;;;;;;;4.03;1.80;;;8.50;99.90;;;;;;5049225;28;20403;-62
2023/01/02 09:22:22;;;;;;;4.00;1.52;;;8.50;99.90;;;;;;5029004;28;20048;-62
2023/01/02 09:24:48;;;;;;;2.63;1.33;;;8.50;99.90;;;;;;5050745;28;20052;-62
2023/01/02 09:27:14;;;;;;;6.22;1.73;;;8.50;99.90;;;;;;5044286;28;20072;-62
2023/01/02 09:29:39;;;;;;;6.78;1.77;;;8.50;99.90;;;;;;5047768;28;20045;-62
2023/01/02 09:32:05;;;;;;;4.60;1.80;;;8.50;99.90;;;;;;5046564;28;20132;-62
2023/01/02 09:34:31;;;;;;;3.70;1.63;;;8.50;99.90;;;;;;5056047;28;20041;-62
2023/01/02 09:36:57;;;;;;;6.20;1.60;;;8.50;99.90;;;;;;5054799;28;20072;-62
2023/01/02 09:39:22;;;;;;;3.78;1.75;;;8.50;99.90;;;;;;5051867;28;20044;-63
2023/01/02 09:41:56;;;;;;;4.03;1.83;;;8.50;99.90;;;;;;5048972;28;20148;-62
2023/01/02 09:44:22;;;;;;;3.85;2.10;;;8.50;99.90;;;;;;5030751;28;20151;-63
2023/01/02 09:47:05;;;;;;;6.70;2.28;;;8.50;99.90;;;;;;5053262;28;20132;-61
2023/01/02 09:49:59;;;;;;;3.50;2.20;;;8.50;99.90;;;;;;5048180;28;20062;-62
2023/01/02 09:52:29;;;;;;;3.72;2.60;;;8.50;99.90;;;;;;5047742;28;20043;-62
2023/01/02 09:54:55;;;;;;;5.38;2.67;;;8.50;99.90;;;;;;5047598;28;20065;-63
2023/01/02 09:57:21;;;;;;;6.22;3.05;;;8.50;99.90;;;;;;5045720;28;20041;-62
2023/01/02 10:00:04;;;;;;;5.80;2.92;;;8.50;99.90;;;;;;5048346;28;20559;-62
2023/01/02 10:02:29;;;;;;;5.25;3.03;;;8.60;99.90;;;;;;5044497;28;20137;-63
2023/01/02 10:05:07;;;;;;;4.82;2.47;;;8.60;99.90;;;;;;5036452;28;20056;-63
2023/01/02 10:08:12;;;;;;;5.80;2.63;;;8.60;99.90;;;;;;5039155;28;20135;-62
2023/01/02 10:11:15;;;;;;;7.43;2.70;;;8.60;99.90;;;;;;5048774;28;20072;-62
2023/01/02 10:13:45;;;;;;;5.70;2.13;;;8.60;99.90;;;;;;4993424;28;20086;-62
2023/01/02 10:16:18;;;;;;;4.32;2.15;;;8.60;99.90;;;;;;5022707;28;20147;-62
2023/01/02 10:18:48;;;;;;;4.57;2.10;;;8.60;99.90;;;;;;5041079;28;20222;-63
2023/01/02 10:21:25;;;;;;;4.57;2.28;;;8.60;99.90;;;;;;5036944;28;22040;-62
2023/01/02 10:24:02;;;;;;;5.30;2.13;;;8.60;99.90;;;;;;5028877;28;20045;-63
2023/01/02 10:26:34;;;;;;;5.45;2.10;;;8.60;99.90;;;;;;5025859;28;20399;-62
2023/01/02 10:29:26;;;;;;;5.78;1.98;;;8.60;99.90;;;;;;5040179;28;20056;-62
2023/01/02 10:32:04;;;;;;;5.68;2.20;;;8.60;99.90;;;;;;5041480;28;20056;-63
2023/01/02 10:34:41;;;;;;;5.38;1.90;;;8.60;99.90;;;;;;5040075;28;20062;-63
2023/01/02 10:37:13;;;;;;;4.22;1.83;;;8.60;99.90;;;;;;5042528;28;21051;-63
2023/01/02 10:39:42;;;;;;;3.33;1.60;;;8.60;99.90;;;;;;5045737;28;20037;-62
2023/01/02 10:42:11;;;;;;;5.13;1.83;;;8.60;99.90;;;;;;5040287;28;20105;-62
2023/01/02 10:44:38;;;;;;;3.22;1.83;;;8.50;99.90;;;;;;5037937;28;20049;-62
2023/01/02 10:47:30;;;;;;;4.55;2.33;;;8.50;99.90;;;;;;5036815;28;20102;-63
2023/01/02 10:49:57;;;;;;;2.47;1.70;;;8.60;99.90;;;;;;5045454;28;20134;-62
2023/01/02 10:52:42;;;;;;;4.38;2.17;;;8.50;99.90;;;;;;5053307;28;20114;-63
2023/01/02 10:55:08;;;;;;;4.55;2.25;;;8.60;99.90;;;;;;5048891;28;20056;-62
2023/01/02 10:57:33;;;;;;;4.60;2.30;;;8.60;99.90;;;;;;5038010;28;20040;-62
2023/01/02 11:00:01;;;;;;;3.80;1.90;;;8.60;99.90;;;;;;5032115;28;20495;-62
2023/01/02 11:02:36;;;;;;;3.38;2.00;;;8.60;99.90;;;;;;5038135;28;20473;-62
2023/01/02 11:05:04;;;;;;;3.83;1.90;;;8.60;99.90;;;;;;5022463;28;20052;-63
2023/01/02 11:07:36;;;;;;;3.25;1.60;;;8.60;99.90;;;;;;5034270;28;20049;-62
2023/01/02 11:10:20;;;;;;;3.10;1.75;;;8.60;99.90;;;;;;5042567;28;20048;-68
2023/01/02 11:12:46;;;;;;;7.50;1.90;;;8.70;99.90;;;;;;5037639;28;20071;-62
2023/01/02 11:15:13;;;;;;;5.03;1.80;;;8.70;99.90;;;;;;5037034;28;20040;-67
2023/01/02 11:17:42;;;;;;;7.28;2.40;;;8.70;99.90;;;;;;5019684;28;20041;-67
2023/01/02 11:20:21;;;;;;;5.15;2.05;;;8.70;99.90;;;;;;5017304;28;20053;-61
2023/01/02 11:22:47;;;;;;;5.72;2.20;;;8.80;99.90;;;;;;5040174;28;20078;-63
2023/01/02 11:25:21;;;;;;;7.30;2.15;;;8.80;99.90;;;;;;5036987;28;20052;-62
2023/01/02 11:27:48;;;;;;;5.97;1.90;;;8.80;99.90;;;;;;5036207;28;20048;-63
2023/01/02 11:30:53;;;;;;;6.43;1.83;;;8.80;99.90;;;;;;5018862;28;20926;-63
2023/01/02 11:33:28;;;;;;;5.05;1.90;;;8.80;99.90;;;;;;5041007;28;20124;-63
2023/01/02 11:35:55;;;;;;;6.93;2.10;;;8.80;99.90;;;;;;5048138;28;20076;-64
2023/01/02 11:38:57;;;;;;;9.27;2.20;;;8.90;99.90;;;;;;5041094;28;20043;-64
2023/01/02 11:43:47;;;;;;;6.18;1.80;;;9.00;99.90;;;;;;5039592;28;20045;-63
2023/01/02 11:44:25;;;;;;;10.23;2.50;;;9.00;99.90;;;;;;5040205;28;20063;-64
2023/01/02 11:46:52;;;;;;;6.07;1.90;;;9.00;99.90;;;;;;5038790;28;20072;-64
2023/01/02 11:49:21;;;;;;;5.95;1.83;;;9.10;99.90;;;;;;5042419;28;20068;-63
2023/01/02 11:51:57;;;;;;;6.43;2.10;;;9.10;99.90;;;;;;5024044;28;20068;-63
2023/01/02 11:54:44;;;;;;;6.68;2.10;;;9.10;99.90;;;;;;5039912;28;20170;-63
2023/01/02 11:57:36;;;;;;;8.00;2.50;;;9.10;99.90;;;;;;5047602;28;20056;-64
2023/01/02 12:00:08;;;;;;;5.38;1.80;;;9.10;99.90;;;;;;5039002;28;20045;-62
2023/01/02 12:02:42;;;;;;;9.45;2.65;;;9.10;99.90;;;;;;5043143;28;20106;-64
2023/01/02 12:05:14;;;;;;;9.52;2.35;;;9.10;99.90;;;;;;5040116;28;20052;-63
2023/01/02 12:07:46;;;;;;;6.00;1.88;;;9.10;99.90;;;;;;5030173;28;20491;-64
2023/01/02 12:10:31;;;;;;;6.50;1.60;;;9.10;99.90;;;;;;5040103;28;20044;-63
2023/01/02 12:13:25;;;;;;;8.10;2.53;;;9.10;99.90;;;;;;5043008;28;20044;-63
2023/01/02 12:15:59;;;;;;;7.28;1.77;;;9.00;99.90;;;;;;5040223;28;20044;-63
2023/01/02 12:19:03;;;;;;;8.90;2.20;;;9.00;99.90;;;;;;5041936;28;20070;-63
2023/01/02 12:21:29;;;;;;;8.50;2.13;;;9.00;99.90;;;;;;5034990;28;20061;-63
2023/01/02 12:24:21;;;;;;;8.20;2.05;;;9.00;99.90;;;;;;5039786;28;21036;-63
2023/01/02 12:27:05;;;;;;;7.45;2.00;;;9.00;99.90;;;;;;5036668;28;20045;-60
2023/01/02 12:29:52;;;;;;;9.48;2.08;;;9.00;99.90;;;;;;5041766;28;20090;-63
2023/01/02 12:32:37;;;;;;;10.20;2.08;;;9.00;99.90;;;;;;5034386;28;20059;-63
2023/01/02 12:35:46;;;;;;;11.68;2.00;;;9.00;99.90;;;;;;5042182;28;20141;-63
2023/01/02 12:38:31;;;;;;;8.00;1.60;;;9.00;99.90;;;;;;5040150;28;20045;-63
2023/01/02 12:40:59;;;;;;;11.02;2.20;;;9.00;99.90;;;;;;5040048;28;20056;-63
2023/01/02 12:43:42;;;;;;;13.75;2.38;;;9.00;99.90;;;;;;5045952;28;20067;-62
2023/01/02 12:46:27;;;;;;;13.43;2.28;;;9.00;99.90;;;;;;5041197;28;20044;-63
2023/01/02 12:49:06;;;;;;;11.43;2.03;;;9.00;99.90;;;;;;5043889;28;20110;-62
2023/01/02 12:51:48;;;;;;;16.02;2.58;;;9.00;99.90;;;;;;5043198;28;20053;-62
2023/01/02 12:55:03;;;;;;;10.13;2.13;;;9.00;99.90;;;;;;5043132;28;21498;-62
2023/01/02 12:57:53;;;;;;;12.70;2.20;;;9.00;99.90;;;;;;5043396;28;22667;-62
2023/01/02 13:00:54;;;;;;;13.02;2.60;;;9.00;99.90;;;;;;5046119;28;20552;-62
2023/01/02 13:03:31;;;;;;;16.35;2.80;;;9.00;99.90;;;;;;5043818;28;20052;-62
2023/01/02 13:06:13;;;;;;;12.38;2.08;;;9.00;99.90;;;;;;5045997;28;20063;-62
2023/01/02 13:08:49;;;;;;;11.80;2.00;;;9.00;99.90;;;;;;5046786;28;20041;-62
2023/01/02 13:11:22;;;;;;;8.57;2.00;;;9.00;99.90;;;;;;5041551;28;20456;-63